createdAt,value
2022-10-19T00:00:28.897Z,102369.63
2022-10-19T00:02:55.324Z,102366.28
2022-10-19T00:05:21.672Z,102373.31
2022-10-19T00:07:48.031Z,102369.59
2022-10-19T00:10:14.387Z,102366.84
2022-10-19T00:12:40.916Z,102366.16
2022-10-19T00:15:07.571Z,102359.69
2022-10-19T00:17:34.435Z,102364.09
2022-10-19T00:20:01.060Z,102356.50
2022-10-19T00:22:27.394Z,102358.00
2022-10-19T00:24:56.111Z,102356.09
2022-10-19T00:27:22.434Z,102358.00
2022-10-19T00:29:48.839Z,102353.72
2022-10-19T00:32:15.200Z,102351.50
2022-10-19T00:34:41.639Z,102353.19
2022-10-19T00:37:07.987Z,102354.03
2022-10-19T00:39:34.352Z,102350.56
2022-10-19T00:42:00.695Z,102354.56
2022-10-19T00:44:30.106Z,102353.97
2022-10-19T00:47:01.814Z,102358.38
2022-10-19T00:49:33.590Z,102356.16
2022-10-19T00:52:05.696Z,102352.03
2022-10-19T00:54:32.930Z,102350.50
2022-10-19T00:56:59.795Z,102353.84
2022-10-19T00:59:27.501Z,102354.91
2022-10-19T01:01:54.211Z,102351.75
2022-10-19T01:04:21.838Z,102344.84
2022-10-19T01:06:48.233Z,102343.63
2022-10-19T01:09:14.607Z,102352.97
2022-10-19T01:11:53.835Z,102344.69
2022-10-19T01:14:20.163Z,102337.97
2022-10-19T01:16:55.726Z,102345.22
2022-10-19T01:19:25.096Z,102346.19
2022-10-19T01:21:59.242Z,102347.16
2022-10-19T01:24:40.576Z,102344.66
2022-10-19T01:27:13.384Z,102345.06
2022-10-19T01:29:58.539Z,102343.53
2022-10-19T01:32:30.767Z,102348.06
2022-10-19T01:35:06.445Z,102342.84
2022-10-19T01:38:02.331Z,102341.19
2022-10-19T01:40:38.526Z,102341.44
2022-10-19T01:43:20.108Z,102339.66
2022-10-19T01:45:55.437Z,102332.91
2022-10-19T01:48:23.691Z,102329.72
2022-10-19T01:50:59.866Z,102325.59
2022-10-19T01:53:28.448Z,102321.34
2022-10-19T01:55:55.617Z,102317.19
2022-10-19T01:58:26.281Z,102317.59
2022-10-19T02:00:53.968Z,102315.66
2022-10-19T02:03:20.706Z,102309.16
2022-10-19T02:05:48.176Z,102315.38
2022-10-19T02:08:17.366Z,102314.66
2022-10-19T02:10:45.087Z,102326.78
2022-10-19T02:13:13.768Z,102319.19
2022-10-19T02:15:42.659Z,102316.56
2022-10-19T02:18:10.483Z,102310.53
2022-10-19T02:20:37.379Z,102313.53
2022-10-19T02:23:05.235Z,102311.28
2022-10-19T02:25:32.058Z,102311.44
2022-10-19T02:28:00.585Z,102311.81
2022-10-19T02:30:26.989Z,102310.16
2022-10-19T02:32:53.362Z,102309.47
2022-10-19T02:35:19.968Z,102296.53
2022-10-19T02:37:46.423Z,102301.00
2022-10-19T02:40:13.841Z,102299.38
2022-10-19T02:42:40.140Z,102292.78
2022-10-19T02:45:06.476Z,102284.06
2022-10-19T02:47:38.573Z,102286.97
2022-10-19T02:50:06.408Z,102280.09
2022-10-19T02:52:32.814Z,102286.28
2022-10-19T02:54:59.543Z,102283.91
2022-10-19T02:57:25.918Z,102283.91
2022-10-19T02:59:52.794Z,102267.66
2022-10-19T03:02:20.068Z,102269.34
2022-10-19T03:07:15.744Z,102263.53
2022-10-19T03:09:42.535Z,102264.88
2022-10-19T03:12:09.291Z,102265.56
2022-10-19T03:14:35.705Z,102259.19
2022-10-19T03:17:02.102Z,102262.63
2022-10-19T03:19:28.448Z,102269.13
2022-10-19T03:21:54.810Z,102269.91
2022-10-19T03:24:21.153Z,102267.31
2022-10-19T03:26:47.512Z,102279.63
2022-10-19T03:29:13.949Z,102272.63
2022-10-19T03:31:40.331Z,102271.81
2022-10-19T03:34:06.684Z,102278.50
2022-10-19T03:36:34.410Z,102284.44
2022-10-19T03:39:02.210Z,102278.50
2022-10-19T03:41:29.894Z,102281.25
2022-10-19T03:43:56.566Z,102287.41
2022-10-19T03:46:23.105Z,102287.56
2022-10-19T03:48:49.456Z,102291.22
2022-10-19T03:51:20.547Z,102291.72
2022-10-19T03:53:47.340Z,102298.72
2022-10-19T03:56:15.120Z,102295.31
2022-10-19T03:58:42.278Z,102296.34
2022-10-19T04:01:10.053Z,102292.00
2022-10-19T04:03:36.807Z,102299.94
2022-10-19T04:06:03.879Z,102300.19
2022-10-19T04:08:30.334Z,102295.22
2022-10-19T04:11:04.395Z,102292.59
2022-10-19T04:13:31.288Z,102288.34
2022-10-19T04:15:57.988Z,102291.31
2022-10-19T04:18:24.378Z,102291.44
2022-10-19T04:21:01.227Z,102286.94
2022-10-19T04:23:28.317Z,102295.16
2022-10-19T04:26:01.533Z,102295.38
2022-10-19T04:28:28.069Z,102292.09
2022-10-19T04:30:54.479Z,102297.31
2022-10-19T04:33:20.833Z,102296.72
2022-10-19T04:35:47.167Z,102296.16
2022-10-19T04:38:13.577Z,102297.78
2022-10-19T04:40:39.948Z,102290.09
2022-10-19T04:43:06.341Z,102294.59
2022-10-19T04:45:34.984Z,102289.63
2022-10-19T04:48:01.882Z,102294.25
2022-10-19T04:50:28.245Z,102291.66
2022-10-19T04:52:55.372Z,102279.56
2022-10-19T04:55:21.785Z,102278.06
2022-10-19T04:57:48.144Z,102280.75
2022-10-19T05:00:14.775Z,102278.16
2022-10-19T05:02:44.796Z,102276.75
2022-10-19T05:05:12.143Z,102272.72
2022-10-19T05:07:38.565Z,102273.44
2022-10-19T05:10:05.123Z,102273.78
2022-10-19T05:12:31.446Z,102273.91
2022-10-19T05:14:57.809Z,102272.03
2022-10-19T05:17:24.160Z,102271.31
2022-10-19T05:19:50.491Z,102275.69
2022-10-19T05:22:16.822Z,102268.13
2022-10-19T05:24:43.151Z,102262.09
2022-10-19T05:27:09.512Z,102262.31
2022-10-19T05:29:35.894Z,102263.75
2022-10-19T05:32:02.275Z,102265.19
2022-10-19T05:34:28.674Z,102266.03
2022-10-19T05:36:55.079Z,102257.88
2022-10-19T05:39:21.431Z,102256.91
2022-10-19T05:41:47.877Z,102257.41
2022-10-19T05:44:18.603Z,102254.31
2022-10-19T05:46:44.943Z,102249.09
2022-10-19T05:49:12.809Z,102256.91
2022-10-19T05:51:39.518Z,102263.56
2022-10-19T05:54:06.288Z,102259.38
2022-10-19T05:56:32.846Z,102258.06
2022-10-19T05:59:00.338Z,102257.47
2022-10-19T06:01:27.620Z,102258.44
2022-10-19T06:03:54.907Z,102251.38
2022-10-19T06:06:21.610Z,102246.84
2022-10-19T06:08:48.608Z,102245.88
2022-10-19T06:11:19.500Z,102246.56
2022-10-19T06:13:46.793Z,102249.91
2022-10-19T06:16:15.236Z,102252.06
2022-10-19T06:18:42.782Z,102242.22
2022-10-19T06:21:13.397Z,102248.25
2022-10-19T06:23:40.119Z,102247.88
2022-10-19T06:26:07.984Z,102247.88
2022-10-19T06:28:34.663Z,102252.16
2022-10-19T06:31:01.212Z,102268.03
2022-10-19T06:33:28.136Z,102273.50
2022-10-19T06:35:54.516Z,102272.28
2022-10-19T06:38:21.107Z,102269.69
2022-10-19T06:40:49.072Z,102274.75
2022-10-19T06:43:15.760Z,102266.59
2022-10-19T06:45:42.158Z,102266.59
2022-10-19T06:48:08.580Z,102263.91
2022-10-19T06:50:35.346Z,102270.16
2022-10-19T06:53:01.721Z,102270.91
2022-10-19T06:55:28.073Z,102261.84
2022-10-19T06:57:54.441Z,102261.84
2022-10-19T07:00:20.801Z,102249.09
2022-10-19T07:02:47.175Z,102247.03
2022-10-19T07:05:13.541Z,102257.38
2022-10-19T07:07:39.940Z,102255.47
2022-10-19T07:10:06.482Z,102253.13
2022-10-19T07:12:32.897Z,102250.88
2022-10-19T07:14:59.348Z,102256.41
2022-10-19T07:17:25.734Z,102260.91
2022-10-19T07:19:52.160Z,102266.84
2022-10-19T07:22:23.153Z,102271.56
2022-10-19T07:24:52.266Z,102280.84
2022-10-19T07:27:18.664Z,102271.22
2022-10-19T07:29:45.087Z,102269.44
2022-10-19T07:32:11.471Z,102278.13
2022-10-19T07:34:37.828Z,102285.56
2022-10-19T07:37:04.277Z,102283.88
2022-10-19T07:39:30.693Z,102293.59
2022-10-19T07:41:57.128Z,102285.97
2022-10-19T07:44:23.710Z,102279.69
2022-10-19T07:46:50.388Z,102268.66
2022-10-19T07:49:18.847Z,102272.56
2022-10-19T07:51:46.478Z,102275.78
2022-10-19T07:54:13.674Z,102269.84
2022-10-19T07:56:40.317Z,102273.16
2022-10-19T07:59:06.922Z,102280.81
2022-10-19T08:01:34.836Z,102279.56
2022-10-19T08:06:47.868Z,102278.81
2022-10-19T08:09:28.002Z,102273.13
2022-10-19T08:12:00.732Z,102275.88
2022-10-19T08:14:27.101Z,102269.13
2022-10-19T08:16:53.454Z,102263.53
2022-10-19T08:19:19.890Z,102263.22
2022-10-19T08:21:46.480Z,102255.97
2022-10-19T08:24:13.978Z,102254.22
2022-10-19T08:26:40.416Z,102248.25
2022-10-19T08:29:07.911Z,102256.47
2022-10-19T08:31:34.662Z,102266.09
2022-10-19T08:34:01.130Z,102260.41
2022-10-19T08:36:31.072Z,102259.84
2022-10-19T08:38:57.568Z,102259.84
2022-10-19T08:41:30.038Z,102252.91
2022-10-19T08:43:56.524Z,102247.41
2022-10-19T08:46:22.835Z,102240.53
2022-10-19T08:48:49.305Z,102243.75
2022-10-19T08:51:15.766Z,102240.03
2022-10-19T08:53:53.297Z,102237.03
2022-10-19T08:56:55.310Z,102234.88
2022-10-19T08:59:26.554Z,102220.94
2022-10-19T09:01:55.289Z,102214.22
2022-10-19T09:04:24.168Z,102219.50
2022-10-19T09:07:00.198Z,102214.81
2022-10-19T09:09:28.896Z,102210.97
2022-10-19T09:11:58.319Z,102207.84
2022-10-19T09:14:24.654Z,102200.69
2022-10-19T09:16:51.182Z,102204.84
2022-10-19T09:19:26.194Z,102203.59
2022-10-19T09:21:56.871Z,102203.19
2022-10-19T09:24:29.767Z,102193.47
2022-10-19T09:26:58.502Z,102202.13
2022-10-19T09:29:31.959Z,102199.34
2022-10-19T09:32:00.730Z,102205.28
2022-10-19T09:34:36.502Z,102202.94
2022-10-19T09:37:03.119Z,102203.50
2022-10-19T09:39:30.512Z,102208.56
2022-10-19T09:42:19.917Z,102204.81
2022-10-19T09:44:46.318Z,102189.53
2022-10-19T09:47:29.398Z,102211.19
2022-10-19T09:50:14.609Z,102201.28
2022-10-19T09:52:42.100Z,102194.63
2022-10-19T09:55:14.456Z,102202.06
2022-10-19T09:57:45.171Z,102200.22
2022-10-19T10:00:17.210Z,102192.56
2022-10-19T10:02:48.276Z,102194.31
2022-10-19T10:05:15.075Z,102193.72
2022-10-19T10:07:41.920Z,102187.09
2022-10-19T10:10:09.307Z,102192.91
2022-10-19T10:12:36.270Z,102193.06
2022-10-19T10:15:04.279Z,102188.72
2022-10-19T10:17:31.399Z,102189.81
2022-10-19T10:19:57.708Z,102187.03
2022-10-19T10:22:32.513Z,102183.13
2022-10-19T10:24:59.127Z,102193.78
2022-10-19T10:27:30.517Z,102188.56
2022-10-19T10:29:57.496Z,102188.47
2022-10-19T10:32:24.031Z,102189.06
2022-10-19T10:35:03.770Z,102187.00
2022-10-19T10:37:30.078Z,102170.84
2022-10-19T10:40:00.313Z,102164.47
2022-10-19T10:42:36.159Z,102162.09
2022-10-19T10:45:03.006Z,102161.66
2022-10-19T10:47:29.692Z,102151.41
2022-10-19T10:49:58.058Z,102152.16
2022-10-19T10:52:25.631Z,102152.63
2022-10-19T10:55:10.434Z,102156.09
2022-10-19T10:57:43.297Z,102154.88
2022-10-19T11:00:13.922Z,102157.63
2022-10-19T11:02:54.164Z,102136.09
2022-10-19T11:05:34.496Z,102139.09
2022-10-19T11:08:12.955Z,102124.59
2022-10-19T11:10:42.463Z,102127.91
2022-10-19T11:13:08.779Z,102125.03
2022-10-19T11:15:41.118Z,102117.06
2022-10-19T11:18:10.514Z,102106.03
2022-10-19T11:20:39.359Z,102099.66
2022-10-19T11:23:19.408Z,102105.22
2022-10-19T11:25:45.704Z,102095.66
2022-10-19T11:28:18.205Z,102098.81
2022-10-19T11:30:53.428Z,102094.34
2022-10-19T11:33:40.122Z,102100.88
2022-10-19T11:36:19.411Z,102104.97
2022-10-19T11:39:00.841Z,102092.91
2022-10-19T11:41:32.964Z,102082.34
2022-10-19T11:44:14.708Z,102081.25
2022-10-19T11:46:59.401Z,102077.16
2022-10-19T11:49:28.817Z,102087.13
2022-10-19T11:52:14.012Z,102078.34
2022-10-19T11:54:49.490Z,102068.56
2022-10-19T11:57:21.866Z,102071.31
2022-10-19T12:00:03.844Z,102066.59
2022-10-19T12:03:02.823Z,102055.09
2022-10-19T12:05:38.875Z,102053.97
2022-10-19T12:08:13.097Z,102050.16
2022-10-19T12:10:55.553Z,102054.31
2022-10-19T12:13:25.933Z,102043.81
2022-10-19T12:15:54.059Z,102039.03
2022-10-19T12:18:23.497Z,102035.28
2022-10-19T12:20:52.156Z,102030.34
2022-10-19T12:23:21.849Z,102027.72
2022-10-19T12:25:48.684Z,102025.91
2022-10-19T12:28:21.968Z,102017.44
2022-10-19T12:30:48.671Z,102014.50
2022-10-19T12:33:15.035Z,102012.88
2022-10-19T12:35:52.536Z,102004.81
2022-10-19T12:38:22.041Z,102005.47
2022-10-19T12:40:55.882Z,102003.31
2022-10-19T12:43:40.967Z,101987.06
2022-10-19T12:46:07.363Z,101991.50
2022-10-19T12:48:36.297Z,101981.50
2022-10-19T12:51:04.251Z,101979.00
2022-10-19T12:53:37.975Z,101982.78
2022-10-19T12:56:33.560Z,101984.94
2022-10-19T12:59:01.617Z,101975.06
2022-10-19T13:01:42.060Z,101964.88
2022-10-19T13:04:20.886Z,101970.13
2022-10-19T13:06:51.227Z,101960.94
2022-10-19T13:09:23.881Z,101946.78
2022-10-19T13:12:09.098Z,101945.00
2022-10-19T13:14:41.481Z,101944.16
2022-10-19T13:17:08.435Z,101947.44
2022-10-19T13:19:35.094Z,101940.06
2022-10-19T13:22:01.551Z,101931.34
2022-10-19T13:24:27.961Z,101922.31
2022-10-19T13:27:03.690Z,101925.28
2022-10-19T13:29:40.696Z,101922.16
2022-10-19T13:32:25.787Z,101912.47
2022-10-19T13:34:52.196Z,101917.22
2022-10-19T13:37:18.792Z,101914.75
2022-10-19T13:39:45.173Z,101920.00
2022-10-19T13:42:25.565Z,101913.28
2022-10-19T13:44:53.234Z,101916.25
2022-10-19T13:47:19.609Z,101919.38
2022-10-19T13:49:52.104Z,101913.47
2022-10-19T13:52:21.534Z,101907.22
2022-10-19T13:55:07.842Z,101911.00
2022-10-19T13:57:48.890Z,101903.28
2022-10-19T14:00:20.872Z,101901.28
2022-10-19T14:02:59.583Z,101905.41
2022-10-19T14:05:28.981Z,101906.84
2022-10-19T14:08:08.717Z,101902.28
2022-10-19T14:10:56.350Z,101893.88
2022-10-19T14:13:22.306Z,101896.50
2022-10-19T14:15:53.055Z,101894.72
2022-10-19T14:18:27.420Z,101888.47
2022-10-19T14:20:58.246Z,101883.03
2022-10-19T14:23:28.837Z,101881.41
2022-10-19T14:25:55.206Z,101874.03
2022-10-19T14:28:22.471Z,101873.84
2022-10-19T14:31:15.067Z,101869.09
2022-10-19T14:33:45.192Z,101875.34
2022-10-19T14:36:16.358Z,101868.94
2022-10-19T14:38:46.421Z,101863.16
2022-10-19T14:41:39.020Z,101863.66
2022-10-19T14:44:28.468Z,101863.03
2022-10-19T14:46:55.285Z,101853.81
2022-10-19T14:49:21.689Z,101859.06
2022-10-19T14:51:51.839Z,101862.00
2022-10-19T14:54:32.200Z,101852.03
2022-10-19T14:57:03.089Z,101854.16
2022-10-19T14:59:31.903Z,101851.84
2022-10-19T15:02:00.506Z,101842.81
2022-10-19T15:04:32.037Z,101835.41
2022-10-19T15:07:01.061Z,101837.25
2022-10-19T15:09:37.460Z,101820.81
2022-10-19T15:12:17.875Z,101820.94
2022-10-19T15:14:44.999Z,101829.19
2022-10-19T15:17:22.036Z,101823.28
2022-10-19T15:19:48.557Z,101820.94
2022-10-19T15:22:19.022Z,101812.13
2022-10-19T15:25:03.979Z,101816.06
2022-10-19T15:27:31.706Z,101813.94
2022-10-19T15:29:59.768Z,101803.56
2022-10-19T15:32:31.807Z,101806.19
2022-10-19T15:34:58.568Z,101803.56
2022-10-19T15:39:52.373Z,101792.56
2022-10-19T15:42:22.911Z,101790.47
2022-10-19T15:44:49.562Z,101784.19
2022-10-19T15:47:16.078Z,101788.97
2022-10-19T15:49:42.475Z,101787.63
2022-10-19T15:52:15.528Z,101784.53
2022-10-19T15:54:42.813Z,101777.50
2022-10-19T15:57:24.228Z,101777.31
2022-10-19T15:59:50.606Z,101773.22
2022-10-19T16:02:17.063Z,101767.47
2022-10-19T16:04:43.479Z,101773.38
2022-10-19T16:07:16.621Z,101764.34
2022-10-19T16:09:43.033Z,101763.34
2022-10-19T16:12:10.705Z,101761.56
2022-10-19T16:14:37.131Z,101760.25
2022-10-19T16:17:03.966Z,101754.50
2022-10-19T16:19:30.513Z,101756.97
2022-10-19T16:21:56.927Z,101747.47
2022-10-19T16:24:23.328Z,101741.19
2022-10-19T16:26:49.710Z,101738.78
2022-10-19T16:29:16.135Z,101743.69
2022-10-19T16:31:42.497Z,101735.78
2022-10-19T16:34:08.865Z,101733.03
2022-10-19T16:36:35.262Z,101731.69
2022-10-19T16:39:01.772Z,101730.69
2022-10-19T16:41:28.187Z,101723.16
2022-10-19T16:43:55.061Z,101726.47
2022-10-19T16:46:22.293Z,101725.13
2022-10-19T16:48:48.725Z,101731.06
2022-10-19T16:51:18.938Z,101730.38
2022-10-19T16:53:45.472Z,101733.81
2022-10-19T16:56:12.905Z,101732.69
2022-10-19T16:58:39.901Z,101719.91
2022-10-19T17:01:07.520Z,101718.25
2022-10-19T17:03:33.933Z,101729.56
2022-10-19T17:06:02.939Z,101728.72
2022-10-19T17:08:39.859Z,101730.72
2022-10-19T17:11:24.587Z,101729.22
2022-10-19T17:13:52.004Z,101724.94
2022-10-19T17:16:19.808Z,101722.47
2022-10-19T17:18:46.372Z,101722.59
2022-10-19T17:21:18.122Z,101706.34
2022-10-19T17:23:44.644Z,101714.84
2022-10-19T17:26:11.464Z,101714.63
2022-10-19T17:28:38.600Z,101716.13
2022-10-19T17:31:09.276Z,101712.44
2022-10-19T17:33:36.321Z,101701.22
2022-10-19T17:36:13.425Z,101700.25
2022-10-19T17:38:40.368Z,101696.66
2022-10-19T17:41:08.676Z,101695.09
2022-10-19T17:43:35.608Z,101708.00
2022-10-19T17:46:02.917Z,101696.34
2022-10-19T17:48:29.741Z,101693.72
2022-10-19T17:51:00.173Z,101699.16
2022-10-19T17:53:26.882Z,101697.09
2022-10-19T17:55:53.493Z,101701.53
2022-10-19T17:58:20.133Z,101700.56
2022-10-19T18:00:46.838Z,101695.91
2022-10-19T18:03:13.235Z,101704.38
2022-10-19T18:05:39.683Z,101710.00
2022-10-19T18:08:06.036Z,101707.41
2022-10-19T18:10:34.685Z,101707.50
2022-10-19T18:13:01.079Z,101712.91
2022-10-19T18:15:27.470Z,101711.31
2022-10-19T18:17:53.845Z,101715.03
2022-10-19T18:20:20.236Z,101710.97
2022-10-19T18:22:46.743Z,101709.88
2022-10-19T18:25:18.802Z,101708.41
2022-10-19T18:27:52.567Z,101708.06
2022-10-19T18:30:18.967Z,101702.84
2022-10-19T18:32:48.820Z,101689.19
2022-10-19T18:35:15.280Z,101700.25
2022-10-19T18:37:41.745Z,101714.13
2022-10-19T18:40:10.330Z,101710.72
2022-10-19T18:42:37.012Z,101712.13
2022-10-19T18:45:04.105Z,101696.47
2022-10-19T18:47:30.928Z,101695.34
2022-10-19T18:49:57.365Z,101696.88
2022-10-19T18:52:23.731Z,101695.84
2022-10-19T18:54:50.093Z,101686.44
2022-10-19T18:57:16.509Z,101691.56
2022-10-19T18:59:42.861Z,101680.91
2022-10-19T19:02:17.111Z,101684.47
2022-10-19T19:04:49.294Z,101684.88
2022-10-19T19:07:15.672Z,101674.56
2022-10-19T19:09:42.644Z,101665.63
2022-10-19T19:12:09.185Z,101658.03
2022-10-19T19:14:35.644Z,101655.13
2022-10-19T19:17:02.004Z,101655.94
2022-10-19T19:19:29.785Z,101650.78
2022-10-19T19:21:56.244Z,101652.53
2022-10-19T19:24:22.859Z,101658.94
2022-10-19T19:26:51.000Z,101652.47
2022-10-19T19:29:18.194Z,101642.78
2022-10-19T19:31:44.675Z,101637.72
2022-10-19T19:34:11.286Z,101637.88
2022-10-19T19:36:38.691Z,101635.59
2022-10-19T19:39:05.223Z,101632.50
2022-10-19T19:41:34.062Z,101639.91
2022-10-19T19:44:00.573Z,101641.22
2022-10-19T19:46:26.945Z,101649.28
2022-10-19T19:48:58.043Z,101648.75
2022-10-19T19:51:24.504Z,101642.69
2022-10-19T19:53:50.874Z,101624.19
2022-10-19T19:56:17.771Z,101621.84
2022-10-19T19:58:44.965Z,101611.00
2022-10-19T20:01:15.607Z,101613.47
2022-10-19T20:03:42.257Z,101614.44
2022-10-19T20:06:08.975Z,101613.47
2022-10-19T20:08:36.785Z,101610.94
2022-10-19T20:11:04.598Z,101617.72
2022-10-19T20:13:31.024Z,101604.59
2022-10-19T20:15:58.953Z,101605.81
2022-10-19T20:18:27.875Z,101594.69
2022-10-19T20:20:54.425Z,101595.16
2022-10-19T20:23:20.927Z,101594.63
2022-10-19T20:25:47.350Z,101603.56
2022-10-19T20:28:13.918Z,101602.88
2022-10-19T20:30:40.496Z,101596.97
2022-10-19T20:33:06.970Z,101599.19
2022-10-19T20:35:35.794Z,101591.59
2022-10-19T20:38:03.792Z,101594.13
2022-10-19T20:42:56.567Z,101582.78
2022-10-19T20:45:23.074Z,101571.66
2022-10-19T20:47:49.464Z,101573.16
2022-10-19T20:50:17.075Z,101566.84
2022-10-19T20:52:45.848Z,101568.03
2022-10-19T20:55:12.202Z,101565.94
2022-10-19T20:57:38.648Z,101566.31
2022-10-19T21:00:05.349Z,101570.06
2022-10-19T21:02:31.711Z,101561.41
2022-10-19T21:04:58.068Z,101568.44
2022-10-19T21:07:24.446Z,101556.25
2022-10-19T21:09:50.795Z,101562.34
2022-10-19T21:12:17.176Z,101555.25
2022-10-19T21:14:43.572Z,101553.59
2022-10-19T21:17:09.932Z,101545.19
2022-10-19T21:19:36.318Z,101542.28
2022-10-19T21:22:02.754Z,101532.06
2022-10-19T21:24:33.434Z,101531.53
2022-10-19T21:27:01.419Z,101530.78
2022-10-19T21:29:27.937Z,101526.84
2022-10-19T21:31:54.732Z,101530.16
2022-10-19T21:34:25.672Z,101524.00
2022-10-19T21:36:52.214Z,101524.16
2022-10-19T21:39:19.201Z,101531.75
2022-10-19T21:41:46.060Z,101532.41
2022-10-19T21:44:13.222Z,101527.16
2022-10-19T21:46:40.051Z,101522.88
2022-10-19T21:49:06.418Z,101521.50
2022-10-19T21:51:32.835Z,101518.56
2022-10-19T21:53:59.424Z,101513.19
2022-10-19T21:56:26.145Z,101515.13
2022-10-19T21:58:53.174Z,101509.97
2022-10-19T22:01:21.075Z,101511.63
2022-10-19T22:03:47.651Z,101507.75
2022-10-19T22:06:14.540Z,101521.22
2022-10-19T22:08:44.442Z,101521.38
2022-10-19T22:18:58.703Z,101488.84
2022-10-19T22:21:26.836Z,101490.06
2022-10-19T22:23:54.394Z,101490.38
2022-10-19T22:26:25.248Z,101485.22
2022-10-19T22:28:51.695Z,101477.78
2022-10-19T22:31:18.353Z,101473.75
2022-10-19T22:33:44.791Z,101465.34
2022-10-19T22:36:12.808Z,101463.84
2022-10-19T22:38:39.635Z,101461.72
2022-10-19T22:41:06.030Z,101448.31
2022-10-19T22:43:32.374Z,101450.16
2022-10-19T22:45:58.750Z,101444.34
2022-10-19T22:48:25.120Z,101439.03
2022-10-19T22:50:54.347Z,101433.56
2022-10-19T22:53:21.795Z,101432.13
2022-10-19T22:55:48.195Z,101425.22
2022-10-19T22:58:14.660Z,101418.72
2022-10-19T23:00:41.027Z,101413.25
2022-10-19T23:03:07.454Z,101397.13
2022-10-19T23:05:33.841Z,101396.91
2022-10-19T23:08:00.207Z,101395.22
2022-10-19T23:10:26.701Z,101394.22
2022-10-19T23:12:53.699Z,101397.53
2022-10-19T23:15:20.784Z,101389.63
2022-10-19T23:17:47.341Z,101387.59
2022-10-19T23:20:14.066Z,101376.56
2022-10-19T23:22:40.742Z,101372.22
2022-10-19T23:25:07.419Z,101365.53
2022-10-19T23:27:34.028Z,101373.78
2022-10-19T23:30:00.835Z,101353.81
2022-10-19T23:32:27.179Z,101352.19
2022-10-19T23:34:53.814Z,101351.72
2022-10-19T23:37:20.192Z,101352.25
2022-10-19T23:39:46.540Z,101351.75
2022-10-19T23:42:12.922Z,101355.66
2022-10-19T23:44:39.289Z,101353.13
2022-10-19T23:47:05.636Z,101361.19
2022-10-19T23:49:32.042Z,101354.69
2022-10-19T23:51:58.406Z,101353.31
2022-10-19T23:54:24.831Z,101357.25
2022-10-19T23:56:51.171Z,101355.97
2022-10-19T23:59:17.700Z,101348.09
